Time;durP1;ratioP1;P1;durP2;ratioP2;P2;SDS_P1;SDS_P2;PMS_P1;PMS_P2;Temp;Humidity;BMP_temperature;BMP_pressure;BME280_temperature;BME280_humidity;BME280_pressure;Samples;Min_cycle;Max_cycle;Signal;HPM_P1;HPM_P2
2021/01/03 00:00:19;;;;;;;74.80;29.20;;;4.00;98.30;;;;;;5127651;23;20288;-82
2021/01/03 00:02:21;;;;;;;55.60;26.47;;;4.20;98.30;;;;;;5127024;23;20452;-82
2021/01/03 00:04:24;;;;;;;69.37;30.60;;;4.20;98.30;;;;;;5126628;23;20445;-83
2021/01/03 00:06:26;;;;;;;61.40;27.20;;;4.10;98.30;;;;;;5126907;23;20442;-82
2021/01/03 00:08:28;;;;;;;70.20;30.30;;;4.20;98.30;;;;;;5127645;23;20453;-82
2021/01/03 00:10:31;;;;;;;66.60;28.40;;;4.20;98.30;;;;;;5128677;23;20459;-83
2021/01/03 00:12:33;;;;;;;71.10;29.07;;;4.20;98.30;;;;;;5128184;23;20484;-82
2021/01/03 00:14:35;;;;;;;61.03;28.70;;;4.20;98.30;;;;;;5128241;23;20456;-82
2021/01/03 00:16:40;;;;;;;64.37;29.00;;;4.20;98.30;;;;;;5121222;23;21182;-83
2021/01/03 00:18:42;;;;;;;70.57;27.27;;;4.20;98.30;;;;;;5129000;23;20483;-82
2021/01/03 00:20:45;;;;;;;63.47;28.33;;;4.20;98.30;;;;;;5129125;23;20457;-82
2021/01/03 00:22:49;;;;;;;63.13;28.60;;;4.20;98.30;;;;;;5129375;23;20480;-82
2021/01/03 00:24:51;;;;;;;70.70;28.70;;;4.10;98.30;;;;;;5128313;23;20476;-82
2021/01/03 00:26:54;;;;;;;62.70;28.48;;;4.10;98.30;;;;;;5127235;23;20207;-82
2021/01/03 00:28:56;;;;;;;66.90;28.00;;;4.20;98.30;;;;;;5127920;23;20596;-82
2021/01/03 00:30:58;;;;;;;65.70;26.90;;;4.20;98.30;;;;;;5127464;23;20464;-82
2021/01/03 00:33:02;;;;;;;72.20;30.00;;;4.20;98.30;;;;;;5119195;23;20489;-83
2021/01/03 00:35:07;;;;;;;74.13;31.65;;;4.20;98.30;;;;;;5126981;23;20445;-82
2021/01/03 00:37:09;;;;;;;61.25;28.48;;;4.20;98.30;;;;;;5127434;23;20612;-82
2021/01/03 00:39:11;;;;;;;68.43;31.70;;;4.20;98.30;;;;;;5123427;23;20196;-82
2021/01/03 00:41:13;;;;;;;63.53;29.13;;;4.10;98.30;;;;;;5123286;23;20449;-82
2021/01/03 00:43:16;;;;;;;64.43;28.17;;;4.20;98.30;;;;;;5123975;23;20200;-83
2021/01/03 00:45:19;;;;;;;74.87;29.60;;;4.30;98.30;;;;;;5124048;23;20442;-83
2021/01/03 00:47:21;;;;;;;59.50;27.47;;;4.20;98.30;;;;;;5124336;23;21127;-83
2021/01/03 00:49:23;;;;;;;63.30;27.57;;;4.30;98.30;;;;;;5123818;23;20455;-82
2021/01/03 00:51:28;;;;;;;63.97;28.53;;;4.30;98.30;;;;;;5124797;23;20476;-83
2021/01/03 00:53:30;;;;;;;63.77;30.07;;;4.30;98.30;;;;;;5125055;23;20473;-82
2021/01/03 00:55:32;;;;;;;64.73;29.50;;;4.30;98.30;;;;;;5116025;23;20966;-82
2021/01/03 00:57:34;;;;;;;61.97;27.87;;;4.30;98.30;;;;;;5116368;23;20459;-82
2021/01/03 00:59:37;;;;;;;62.70;29.93;;;4.20;98.30;;;;;;5124261;23;20479;-82
2021/01/03 01:01:39;;;;;;;58.83;26.27;;;4.30;98.30;;;;;;5124490;23;20449;-82
2021/01/03 01:03:41;;;;;;;71.80;29.27;;;4.20;98.30;;;;;;5124625;23;20538;-82
2021/01/03 01:05:44;;;;;;;65.57;28.37;;;4.30;98.30;;;;;;5124100;23;20449;-82
2021/01/03 01:07:46;;;;;;;55.88;28.77;;;4.20;98.30;;;;;;5116042;23;20843;-82
2021/01/03 01:09:48;;;;;;;72.57;31.37;;;4.30;98.30;;;;;;5123624;23;20243;-82
2021/01/03 01:11:53;;;;;;;70.40;31.00;;;4.30;98.30;;;;;;5115532;23;20470;-82
2021/01/03 01:13:55;;;;;;;70.60;28.63;;;4.40;98.30;;;;;;5115620;23;20490;-82
2021/01/03 01:15:58;;;;;;;61.10;28.80;;;4.30;98.30;;;;;;5123799;23;21043;-82
2021/01/03 01:18:03;;;;;;;65.37;27.50;;;4.30;98.30;;;;;;5123934;23;20861;-83
2021/01/03 01:20:06;;;;;;;69.47;29.67;;;4.30;98.30;;;;;;5124420;23;20794;-83
2021/01/03 01:22:08;;;;;;;60.77;27.83;;;4.30;98.30;;;;;;5123295;23;20443;-83
2021/01/03 01:24:10;;;;;;;68.23;30.33;;;4.30;98.30;;;;;;5123995;23;20478;-82
2021/01/03 01:26:14;;;;;;;68.93;29.37;;;4.30;98.30;;;;;;5123892;23;20525;-82
2021/01/03 01:28:16;;;;;;;70.20;30.93;;;4.40;98.30;;;;;;5116760;23;20454;-82
2021/01/03 01:30:19;;;;;;;72.53;31.97;;;4.40;98.30;;;;;;5116547;23;20468;-82
2021/01/03 01:32:22;;;;;;;66.00;31.77;;;4.40;98.30;;;;;;5117687;23;20456;-82
2021/01/03 01:34:24;;;;;;;76.23;30.50;;;4.30;98.30;;;;;;5118693;23;20477;-82
2021/01/03 01:36:27;;;;;;;58.37;26.80;;;4.30;98.30;;;;;;5126606;23;20442;-82
2021/01/03 01:38:29;;;;;;;61.23;28.50;;;4.30;98.30;;;;;;5127037;23;20525;-82
2021/01/03 01:40:33;;;;;;;69.90;31.87;;;4.30;98.30;;;;;;5127941;23;20523;-82
2021/01/03 01:42:35;;;;;;;73.20;30.83;;;4.40;98.30;;;;;;5127776;23;20465;-82
2021/01/03 01:44:38;;;;;;;71.60;29.07;;;4.40;98.30;;;;;;5127736;23;20200;-82
2021/01/03 01:46:52;;;;;;;65.00;28.10;;;4.40;98.30;;;;;;5127392;23;20454;-82
2021/01/03 01:48:55;;;;;;;60.87;28.73;;;4.30;98.30;;;;;;5127977;23;20406;-82
2021/01/03 01:51:00;;;;;;;66.27;27.57;;;4.40;98.30;;;;;;5127776;23;20553;-82
2021/01/03 01:53:06;;;;;;;70.67;28.33;;;4.40;98.30;;;;;;5119918;23;20457;-81
2021/01/03 01:55:27;;;;;;;59.67;28.23;;;4.40;98.30;;;;;;5126741;23;21016;-82
2021/01/03 01:57:33;;;;;;;52.40;25.90;;;4.30;98.30;;;;;;5125797;23;20919;-82
2021/01/03 01:59:40;;;;;;;64.60;29.90;;;4.30;98.30;;;;;;5117964;23;20504;-82
2021/01/03 02:01:51;;;;;;;51.07;26.57;;;4.30;98.30;;;;;;5127066;23;21005;-82
2021/01/03 02:04:00;;;;;;;58.93;25.17;;;4.30;98.30;;;;;;5118350;23;20466;-82
2021/01/03 02:06:08;;;;;;;68.20;28.23;;;4.30;98.30;;;;;;5126811;23;20476;-82
2021/01/03 02:08:18;;;;;;;55.70;26.57;;;4.30;98.30;;;;;;5118428;23;20538;-82
2021/01/03 02:10:25;;;;;;;58.97;25.30;;;4.30;98.30;;;;;;5118769;23;20516;-82
2021/01/03 02:12:32;;;;;;;65.80;28.10;;;4.30;98.30;;;;;;5126777;23;20442;-82
2021/01/03 02:14:34;;;;;;;59.13;28.57;;;4.30;98.30;;;;;;5118667;23;20462;-82
2021/01/03 02:16:38;;;;;;;63.13;27.10;;;4.30;98.30;;;;;;5126727;23;20451;-82
2021/01/03 02:18:41;;;;;;;59.13;26.40;;;4.30;98.30;;;;;;5126564;23;20530;-82
2021/01/03 02:20:57;;;;;;;58.73;29.30;;;4.30;98.30;;;;;;5118586;23;20455;-82
2021/01/03 02:23:03;;;;;;;66.63;26.87;;;4.30;98.30;;;;;;5126954;23;20542;-82
2021/01/03 02:25:07;;;;;;;64.93;27.13;;;4.30;98.30;;;;;;5127099;23;20506;-82
2021/01/03 02:27:17;;;;;;;69.83;28.27;;;4.30;98.30;;;;;;5126406;23;20502;-82
2021/01/03 02:29:21;;;;;;;60.03;25.43;;;4.30;98.30;;;;;;5117711;23;20463;-82
2021/01/03 02:31:28;;;;;;;66.83;25.53;;;4.30;98.30;;;;;;5120419;23;20482;-83
2021/01/03 02:33:35;;;;;;;60.20;27.23;;;4.30;98.30;;;;;;5128028;23;20462;-82
2021/01/03 02:35:42;;;;;;;64.70;27.87;;;4.30;98.30;;;;;;5126160;23;20485;-82
2021/01/03 02:37:46;;;;;;;68.27;27.83;;;4.30;98.30;;;;;;5125683;23;20914;-82
2021/01/03 02:39:53;;;;;;;67.90;25.63;;;4.20;98.30;;;;;;5126085;23;20455;-82
2021/01/03 02:41:57;;;;;;;57.08;25.13;;;4.20;98.30;;;;;;5117994;23;20794;-82
2021/01/03 02:44:00;;;;;;;54.67;25.20;;;4.20;98.30;;;;;;5126945;23;20200;-82
2021/01/03 02:46:02;;;;;;;70.83;26.47;;;4.20;98.30;;;;;;5127907;23;20450;-82
2021/01/03 02:48:08;;;;;;;61.73;25.33;;;4.10;98.30;;;;;;5119315;23;20431;-82
2021/01/03 02:50:14;;;;;;;60.90;26.33;;;4.10;98.30;;;;;;5126464;23;20509;-82
2021/01/03 02:52:25;;;;;;;61.23;27.00;;;4.20;98.30;;;;;;5118699;23;20238;-82
2021/01/03 02:54:27;;;;;;;60.07;26.13;;;4.20;98.30;;;;;;5125777;23;20561;-82
2021/01/03 02:56:29;;;;;;;56.03;24.70;;;4.20;98.30;;;;;;5118570;23;20500;-82
2021/01/03 02:58:33;;;;;;;61.40;26.23;;;4.20;98.30;;;;;;5126049;23;20504;-82
2021/01/03 03:00:37;;;;;;;54.93;23.97;;;4.20;98.30;;;;;;5126164;23;20438;-82
2021/01/03 03:02:39;;;;;;;56.77;26.83;;;4.20;98.30;;;;;;5125720;23;20481;-82
2021/01/03 03:04:41;;;;;;;53.30;23.33;;;4.20;98.30;;;;;;5117493;23;20459;-83
2021/01/03 03:06:44;;;;;;;49.00;23.37;;;4.20;98.30;;;;;;5118499;23;21220;-82
2021/01/03 03:08:46;;;;;;;60.40;24.20;;;4.20;98.30;;;;;;5125865;23;20523;-82
2021/01/03 03:10:48;;;;;;;61.90;24.90;;;4.20;98.30;;;;;;5121027;23;20212;-82
2021/01/03 03:12:51;;;;;;;67.50;25.47;;;4.20;98.30;;;;;;5119322;23;20544;-82
2021/01/03 03:14:54;;;;;;;54.97;22.17;;;4.20;98.30;;;;;;5119957;23;20483;-81
2021/01/03 03:16:57;;;;;;;58.43;23.30;;;4.20;98.30;;;;;;5127642;23;20459;-81
2021/01/03 03:18:58;;;;;;;50.17;23.88;;;4.30;98.30;;;;;;5120439;23;20475;-82
2021/01/03 03:21:01;;;;;;;54.67;24.30;;;4.30;98.30;;;;;;5127932;23;20230;-82
2021/01/03 03:23:04;;;;;;;58.07;22.13;;;4.30;98.30;;;;;;5128037;23;20538;-82
2021/01/03 03:25:07;;;;;;;48.20;23.23;;;4.20;98.30;;;;;;5127556;23;20459;-82
2021/01/03 03:27:09;;;;;;;58.10;22.63;;;4.20;98.30;;;;;;5124679;23;21776;-82
2021/01/03 03:29:11;;;;;;;50.63;21.37;;;4.30;98.30;;;;;;5130643;23;20456;-82
2021/01/03 03:31:14;;;;;;;58.30;22.20;;;4.30;98.30;;;;;;5133082;23;20448;-81
2021/01/03 03:33:16;;;;;;;57.70;23.83;;;4.20;98.30;;;;;;5131395;23;20453;-82
2021/01/03 03:35:19;;;;;;;52.50;22.73;;;4.20;98.30;;;;;;5119900;23;20456;-81
2021/01/03 03:37:21;;;;;;;60.33;24.70;;;4.20;98.30;;;;;;5127902;23;20540;-82
2021/01/03 03:39:27;;;;;;;61.33;26.97;;;4.30;98.30;;;;;;5119338;23;20493;-82
2021/01/03 03:41:29;;;;;;;45.30;20.70;;;4.40;98.30;;;;;;5127597;23;20476;-82
2021/01/03 03:43:31;;;;;;;47.97;22.40;;;4.30;98.30;;;;;;5127897;23;20451;-81
2021/01/03 03:45:33;;;;;;;59.57;25.47;;;4.30;98.30;;;;;;5119921;23;20487;-82
2021/01/03 03:47:35;;;;;;;47.47;22.13;;;4.30;98.30;;;;;;5127926;23;20438;-82
2021/01/03 03:49:38;;;;;;;39.60;19.03;;;4.30;98.30;;;;;;5127637;23;20468;-82
2021/01/03 03:51:40;;;;;;;44.00;19.93;;;4.30;98.30;;;;;;5118685;23;20477;-82
2021/01/03 03:53:42;;;;;;;43.40;19.10;;;4.30;98.30;;;;;;5118820;23;20494;-82
2021/01/03 03:55:44;;;;;;;46.55;22.08;;;4.30;98.30;;;;;;5128178;23;20518;-81
2021/01/03 03:57:46;;;;;;;53.93;27.67;;;4.30;98.30;;;;;;5119234;23;20212;-82
2021/01/03 03:59:48;;;;;;;46.27;22.10;;;4.40;98.30;;;;;;5117574;23;20454;-82
2021/01/03 04:01:50;;;;;;;50.33;19.27;;;4.50;98.30;;;;;;5119527;23;20460;-82
2021/01/03 04:03:53;;;;;;;44.27;18.60;;;4.40;98.30;;;;;;5119408;23;20499;-82
2021/01/03 04:05:55;;;;;;;35.37;17.53;;;4.40;98.30;;;;;;5128288;23;20440;-82
2021/01/03 04:07:57;;;;;;;36.93;16.80;;;4.30;98.30;;;;;;5119048;23;20497;-82
2021/01/03 04:09:59;;;;;;;44.87;20.17;;;4.30;98.30;;;;;;5127156;23;20422;-82
2021/01/03 04:12:01;;;;;;;37.50;17.23;;;4.30;98.30;;;;;;5125253;23;20443;-82
2021/01/03 04:14:03;;;;;;;41.70;17.17;;;4.30;98.30;;;;;;5115784;23;20459;-82
2021/01/03 04:16:07;;;;;;;37.95;16.77;;;4.30;98.30;;;;;;5124252;23;20554;-82
2021/01/03 04:18:10;;;;;;;37.10;18.30;;;4.30;98.30;;;;;;5115835;23;20687;-82
2021/01/03 04:20:16;;;;;;;40.77;18.03;;;4.20;98.30;;;;;;5124638;23;20536;-82
2021/01/03 04:22:18;;;;;;;45.07;18.00;;;4.20;98.30;;;;;;5115987;23;20460;-82
2021/01/03 04:24:21;;;;;;;37.37;17.93;;;4.20;98.30;;;;;;5115895;23;20538;-83
2021/01/03 04:26:23;;;;;;;35.93;18.17;;;4.20;98.30;;;;;;5124023;23;20450;-82
2021/01/03 04:28:26;;;;;;;41.40;16.50;;;4.20;98.30;;;;;;5123537;23;20447;-82
2021/01/03 04:30:29;;;;;;;39.20;17.87;;;4.30;98.30;;;;;;5123265;23;20434;-83
2021/01/03 04:32:31;;;;;;;42.37;18.77;;;4.30;98.30;;;;;;5115478;23;20514;-82
2021/01/03 04:34:33;;;;;;;38.10;18.47;;;4.30;98.30;;;;;;5114704;23;21299;-82
2021/01/03 04:36:36;;;;;;;39.03;17.00;;;4.30;98.30;;;;;;5114367;23;20537;-82
2021/01/03 04:38:38;;;;;;;38.40;18.93;;;4.30;98.30;;;;;;5122149;23;20988;-82
2021/01/03 04:40:40;;;;;;;43.00;21.70;;;4.30;98.30;;;;;;5115239;23;20796;-82
2021/01/03 04:42:44;;;;;;;54.00;24.70;;;4.30;98.30;;;;;;5124399;23;20448;-83
2021/01/03 04:44:49;;;;;;;38.70;19.33;;;4.30;98.30;;;;;;5117563;23;20462;-82
2021/01/03 04:46:52;;;;;;;45.50;18.43;;;4.20;98.30;;;;;;5124588;23;20455;-83
2021/01/03 04:49:00;;;;;;;36.17;16.77;;;4.20;98.30;;;;;;5124351;23;20465;-83
2021/01/03 04:51:12;;;;;;;35.23;16.60;;;4.20;98.30;;;;;;5125006;23;20455;-82
2021/01/03 04:53:32;;;;;;;36.10;17.63;;;4.20;98.30;;;;;;5116511;23;20457;-82
2021/01/03 04:55:38;;;;;;;39.53;17.43;;;4.20;98.30;;;;;;5124718;23;20866;-82
2021/01/03 04:57:47;;;;;;;33.00;17.27;;;4.20;98.30;;;;;;5124818;23;20461;-82
2021/01/03 04:59:51;;;;;;;35.13;17.63;;;4.20;98.30;;;;;;5125466;23;20567;-82
2021/01/03 05:02:25;;;;;;;32.57;16.37;;;4.30;98.30;;;;;;5126340;23;20455;-82
2021/01/03 05:04:54;;;;;;;31.00;16.30;;;4.30;98.30;;;;;;5125332;23;20410;-82
2021/01/03 05:07:02;;;;;;;28.20;16.00;;;4.30;98.30;;;;;;5125898;23;20432;-82
2021/01/03 05:09:08;;;;;;;37.80;16.83;;;4.30;98.30;;;;;;5118986;23;20433;-82
2021/01/03 05:11:13;;;;;;;28.60;15.77;;;4.30;98.30;;;;;;5126727;23;20446;-82
2021/01/03 05:13:31;;;;;;;33.47;16.70;;;4.20;98.30;;;;;;5116237;23;20490;-82
2021/01/03 05:15:34;;;;;;;29.73;15.67;;;4.10;98.30;;;;;;5126359;23;20860;-82
2021/01/03 05:17:36;;;;;;;31.08;14.25;;;4.20;98.30;;;;;;5117069;23;20537;-82
2021/01/03 05:19:39;;;;;;;28.07;15.33;;;4.10;98.30;;;;;;5125407;23;20580;-82
2021/01/03 05:21:48;;;;;;;30.50;15.95;;;4.10;98.30;;;;;;5125324;23;20422;-82
2021/01/03 05:23:59;;;;;;;26.02;14.57;;;4.20;98.30;;;;;;5117262;23;20231;-83
2021/01/03 05:26:04;;;;;;;30.73;15.07;;;4.20;98.30;;;;;;5125022;23;20217;-82
2021/01/03 05:28:18;;;;;;;27.00;14.90;;;4.20;98.30;;;;;;5116583;23;20962;-82
2021/01/03 05:30:26;;;;;;;30.73;17.40;;;4.20;98.30;;;;;;5124518;23;20549;-82
2021/01/03 05:32:33;;;;;;;27.17;16.17;;;4.20;98.30;;;;;;5124542;23;20453;-82
2021/01/03 05:34:36;;;;;;;24.87;16.17;;;4.20;98.30;;;;;;5117529;23;20942;-82
2021/01/03 05:36:50;;;;;;;27.37;14.67;;;4.20;98.30;;;;;;5116782;23;20480;-82
2021/01/03 05:38:52;;;;;;;27.63;13.82;;;4.20;98.30;;;;;;5116951;23;20426;-82
2021/01/03 05:41:07;;;;;;;23.30;14.68;;;4.20;98.30;;;;;;5116530;23;20209;-82
2021/01/03 05:43:17;;;;;;;25.77;15.98;;;4.20;98.30;;;;;;5116892;23;20214;-82
2021/01/03 05:45:27;;;;;;;27.40;16.57;;;4.10;98.30;;;;;;5124969;23;20683;-82
2021/01/03 05:47:33;;;;;;;26.88;14.30;;;4.10;98.30;;;;;;5124867;23;20454;-82
2021/01/03 05:49:35;;;;;;;26.65;13.80;;;4.10;98.30;;;;;;5124596;23;20263;-82
2021/01/03 05:51:44;;;;;;;24.10;16.02;;;4.10;98.30;;;;;;5117461;23;20208;-81
2021/01/03 05:53:46;;;;;;;20.20;12.87;;;4.10;98.30;;;;;;5125579;23;20230;-82
2021/01/03 05:55:56;;;;;;;23.27;15.02;;;4.10;98.30;;;;;;5125952;23;20603;-82
2021/01/03 05:58:21;;;;;;;27.33;16.27;;;4.10;98.30;;;;;;5118146;23;20211;-82
2021/01/03 06:00:26;;;;;;;22.03;12.97;;;4.00;98.30;;;;;;5118154;23;20211;-82
2021/01/03 06:02:30;;;;;;;23.85;13.75;;;4.10;98.30;;;;;;5125293;23;20455;-82
2021/01/03 06:04:32;;;;;;;22.75;13.73;;;4.10;98.30;;;;;;5117591;23;20286;-81
2021/01/03 06:06:56;;;;;;;23.10;13.88;;;4.10;98.30;;;;;;5118461;23;20289;-82
2021/01/03 06:08:59;;;;;;;18.10;11.77;;;4.00;98.30;;;;;;5104405;23;20206;-82
2021/01/03 06:11:12;;;;;;;37.60;18.17;;;4.10;98.30;;;;;;5118154;23;20208;-82
2021/01/03 06:13:16;;;;;;;34.88;17.92;;;4.10;98.30;;;;;;5127593;23;20681;-82
2021/01/03 06:15:19;;;;;;;26.70;15.55;;;4.10;98.30;;;;;;5127758;23;20285;-82
2021/01/03 06:17:33;;;;;;;22.45;13.48;;;4.00;98.30;;;;;;5119385;23;20679;-82
2021/01/03 06:19:37;;;;;;;22.08;12.75;;;4.10;98.30;;;;;;5128034;23;20281;-82
2021/01/03 06:21:42;;;;;;;27.65;14.48;;;4.10;98.30;;;;;;5118999;23;20211;-81
2021/01/03 06:23:54;;;;;;;22.77;16.05;;;4.00;98.30;;;;;;5127692;23;20271;-81
2021/01/03 06:26:01;;;;;;;23.77;16.40;;;4.10;98.30;;;;;;5126568;23;20283;-82
2021/01/03 06:28:10;;;;;;;28.88;13.82;;;4.10;98.30;;;;;;5128951;23;20210;-81
2021/01/03 06:30:13;;;;;;;22.13;14.27;;;4.00;98.30;;;;;;5120338;23;20261;-81
2021/01/03 06:32:51;;;;;;;19.55;11.90;;;3.90;98.30;;;;;;5132739;23;20222;-81
2021/01/03 06:35:01;;;;;;;24.15;16.55;;;3.90;98.30;;;;;;5091201;23;20205;-82
2021/01/03 06:37:10;;;;;;;23.73;15.93;;;3.90;98.30;;;;;;5136604;23;20207;-82
2021/01/03 06:39:31;;;;;;;22.83;15.23;;;3.90;98.30;;;;;;5128249;23;20215;-82
2021/01/03 06:41:46;;;;;;;21.55;14.15;;;4.00;98.30;;;;;;5120203;23;20289;-82
2021/01/03 06:44:10;;;;;;;23.60;15.67;;;4.00;98.30;;;;;;5129451;23;20292;-82
2021/01/03 06:46:46;;;;;;;20.75;12.85;;;4.10;98.30;;;;;;5128810;23;20835;-81
2021/01/03 06:49:18;;;;;;;25.63;14.63;;;4.10;98.30;;;;;;5129809;23;20297;-82
2021/01/03 06:51:49;;;;;;;21.27;12.50;;;4.00;98.30;;;;;;5128747;23;20297;-81
2021/01/03 06:54:16;;;;;;;21.77;14.23;;;3.90;98.30;;;;;;5120827;23;20461;-81
2021/01/03 06:56:53;;;;;;;25.17;14.20;;;3.90;98.30;;;;;;5129223;23;20209;-82
2021/01/03 06:59:33;;;;;;;23.50;14.95;;;3.90;98.30;;;;;;5137758;23;20717;-82
2021/01/03 07:01:39;;;;;;;22.80;12.95;;;3.90;98.30;;;;;;5116592;23;20880;-81
2021/01/03 07:03:41;;;;;;;21.75;14.52;;;3.90;98.30;;;;;;5155859;23;20281;-82
2021/01/03 07:05:54;;;;;;;24.17;15.38;;;3.90;98.30;;;;;;5145222;23;20244;-83
2021/01/03 07:08:02;;;;;;;18.83;12.38;;;3.90;98.30;;;;;;5153021;23;20206;-83
2021/01/03 07:10:07;;;;;;;20.75;13.57;;;3.80;98.30;;;;;;5152500;23;20204;-83
2021/01/03 07:12:34;;;;;;;18.42;13.18;;;3.90;98.30;;;;;;5134131;23;20661;-82
2021/01/03 07:14:54;;;;;;;20.15;12.55;;;3.80;98.30;;;;;;5117907;23;20217;-82
2021/01/03 07:16:58;;;;;;;19.88;11.48;;;3.90;98.30;;;;;;5128016;23;20504;-83
2021/01/03 07:19:06;;;;;;;23.85;12.57;;;3.90;98.30;;;;;;5127793;23;20198;-82
2021/01/03 07:21:37;;;;;;;18.33;13.32;;;3.90;98.30;;;;;;5119908;23;20208;-83
2021/01/03 07:23:42;;;;;;;17.92;13.45;;;3.90;98.30;;;;;;5127422;23;20227;-83
2021/01/03 07:26:02;;;;;;;21.42;13.25;;;3.80;98.30;;;;;;5127927;23;20269;-83
2021/01/03 07:28:25;;;;;;;18.90;10.73;;;3.90;98.30;;;;;;5127278;23;20204;-83
2021/01/03 07:30:39;;;;;;;18.73;11.90;;;3.90;98.30;;;;;;5119636;23;20216;-83
2021/01/03 07:32:47;;;;;;;17.93;11.10;;;3.90;98.30;;;;;;5126681;23;20650;-83
2021/01/03 07:34:51;;;;;;;19.60;13.85;;;3.90;98.30;;;;;;5127746;23;21126;-82
2021/01/03 07:36:57;;;;;;;18.27;10.43;;;3.90;98.30;;;;;;5127701;23;20700;-83
2021/01/03 07:39:15;;;;;;;16.30;10.25;;;3.90;98.30;;;;;;5124893;23;20207;-83
2021/01/03 07:41:26;;;;;;;17.35;10.65;;;4.00;98.30;;;;;;5125610;23;20217;-82
2021/01/03 07:43:28;;;;;;;17.63;12.23;;;3.90;98.30;;;;;;5116748;23;20229;-83
2021/01/03 07:45:44;;;;;;;17.30;11.30;;;3.90;98.30;;;;;;5117372;23;20213;-83
2021/01/03 07:47:48;;;;;;;18.57;11.30;;;3.90;98.30;;;;;;5118037;23;20230;-82
2021/01/03 07:49:50;;;;;;;16.55;9.00;;;4.00;98.30;;;;;;5126395;23;20734;-83
2021/01/03 07:51:53;;;;;;;13.63;9.35;;;4.00;98.30;;;;;;5125923;23;20270;-82
2021/01/03 07:53:55;;;;;;;15.30;10.57;;;4.00;98.30;;;;;;5125243;23;20199;-82
2021/01/03 07:56:14;;;;;;;25.70;15.20;;;4.00;98.30;;;;;;5125922;23;20210;-82
2021/01/03 07:58:20;;;;;;;18.85;10.63;;;4.00;98.30;;;;;;5126042;23;20941;-84
2021/01/03 08:00:22;;;;;;;17.50;10.63;;;3.90;98.30;;;;;;5126688;23;20199;-83
2021/01/03 08:02:30;;;;;;;21.17;11.70;;;4.00;98.30;;;;;;5126065;23;20215;-83
2021/01/03 08:04:32;;;;;;;18.73;11.13;;;4.00;98.30;;;;;;5132756;23;20446;-83
2021/01/03 08:06:34;;;;;;;16.53;10.90;;;4.00;98.30;;;;;;5134474;23;21028;-84
2021/01/03 08:08:37;;;;;;;16.48;10.38;;;4.00;98.30;;;;;;5128233;23;20447;-84
2021/01/03 08:10:41;;;;;;;16.87;9.87;;;4.10;98.30;;;;;;5127041;23;20713;-83
2021/01/03 08:12:47;;;;;;;18.08;10.40;;;4.10;98.30;;;;;;5118776;23;20532;-83
2021/01/03 08:14:57;;;;;;;16.00;9.70;;;4.10;98.30;;;;;;5126806;23;20207;-82
2021/01/03 08:17:03;;;;;;;16.67;9.45;;;4.00;98.30;;;;;;5126838;23;20449;-83
2021/01/03 08:19:10;;;;;;;16.70;9.30;;;4.00;98.30;;;;;;5126657;23;20203;-83
2021/01/03 08:21:18;;;;;;;13.90;9.45;;;4.00;98.30;;;;;;5118245;23;20447;-83
2021/01/03 08:23:26;;;;;;;15.68;8.95;;;4.00;98.30;;;;;;5126535;23;20279;-82
2021/01/03 08:25:29;;;;;;;24.95;13.57;;;4.00;98.30;;;;;;5127302;23;20209;-82
2021/01/03 08:27:46;;;;;;;20.63;11.37;;;4.00;98.30;;;;;;5126840;23;20455;-83
2021/01/03 08:29:57;;;;;;;15.70;9.33;;;4.10;98.30;;;;;;5126292;23;20998;-82
2021/01/03 08:32:10;;;;;;;14.98;9.02;;;4.00;98.30;;;;;;5126049;23;20477;-82
2021/01/03 08:34:17;;;;;;;17.20;10.47;;;4.00;98.30;;;;;;5125938;23;20650;-83
2021/01/03 08:36:23;;;;;;;14.50;9.73;;;4.00;98.30;;;;;;5126338;23;20454;-83
2021/01/03 08:38:29;;;;;;;15.23;9.83;;;3.90;98.30;;;;;;5126029;23;20441;-82
2021/01/03 08:40:35;;;;;;;16.17;10.00;;;4.00;98.30;;;;;;5125555;23;20455;-83
2021/01/03 08:42:44;;;;;;;34.40;18.00;;;4.00;98.30;;;;;;5117960;23;20489;-82
2021/01/03 08:44:54;;;;;;;24.50;11.93;;;4.00;98.30;;;;;;5118384;23;20449;-83
2021/01/03 08:47:21;;;;;;;18.37;10.60;;;4.00;98.30;;;;;;5126779;23;20233;-83
2021/01/03 08:49:24;;;;;;;15.40;8.50;;;4.10;98.30;;;;;;5126794;23;20517;-83
2021/01/03 08:51:31;;;;;;;12.18;8.13;;;4.10;98.30;;;;;;5126978;23;20433;-83
2021/01/03 08:53:34;;;;;;;11.70;7.97;;;4.10;98.30;;;;;;5126412;23;20205;-82
2021/01/03 08:55:39;;;;;;;13.43;8.80;;;4.10;98.30;;;;;;5124990;23;20254;-83
2021/01/03 08:57:44;;;;;;;12.23;8.05;;;4.20;98.30;;;;;;5124926;23;20831;-83
2021/01/03 08:59:53;;;;;;;10.50;6.40;;;4.20;98.30;;;;;;5125299;23;20453;-82
2021/01/03 09:01:55;;;;;;;13.90;8.90;;;4.20;98.30;;;;;;5117367;23;20543;-82
2021/01/03 09:04:01;;;;;;;12.05;8.07;;;4.20;98.30;;;;;;5125508;23;20478;-82
2021/01/03 09:06:04;;;;;;;13.17;7.30;;;4.30;98.30;;;;;;5125323;23;20206;-84
2021/01/03 09:08:08;;;;;;;14.10;8.60;;;4.30;98.30;;;;;;5125124;23;20471;-82
2021/01/03 09:10:21;;;;;;;11.33;8.17;;;4.30;98.30;;;;;;5130165;23;20533;-82
2021/01/03 09:12:39;;;;;;;17.53;8.87;;;4.40;98.30;;;;;;5129428;23;20458;-83
2021/01/03 09:14:47;;;;;;;13.40;9.33;;;4.50;98.30;;;;;;5118314;23;20456;-83
2021/01/03 09:16:54;;;;;;;13.23;9.73;;;4.50;98.30;;;;;;5125944;23;20454;-83
2021/01/03 09:19:07;;;;;;;12.90;8.10;;;4.60;98.30;;;;;;5117951;23;20427;-84
2021/01/03 09:21:12;;;;;;;14.90;9.10;;;4.50;98.30;;;;;;5126464;23;20451;-84
2021/01/03 09:23:20;;;;;;;14.73;8.90;;;4.60;98.30;;;;;;5126470;23;20472;-84
2021/01/03 09:25:25;;;;;;;11.63;8.17;;;4.50;98.30;;;;;;5126166;23;20515;-84
2021/01/03 09:27:29;;;;;;;11.87;8.37;;;4.50;98.30;;;;;;5126056;23;20485;-84
2021/01/03 09:29:35;;;;;;;55.00;27.23;;;4.40;98.30;;;;;;5126181;23;20463;-84
2021/01/03 09:31:52;;;;;;;157.53;69.37;;;4.50;98.30;;;;;;5126287;23;20970;-83
2021/01/03 09:34:10;;;;;;;24.07;13.40;;;4.50;98.30;;;;;;5126576;23;20443;-84
2021/01/03 09:36:25;;;;;;;15.80;8.97;;;4.50;98.30;;;;;;5127302;23;20461;-83
2021/01/03 09:38:51;;;;;;;11.57;7.60;;;4.50;98.30;;;;;;5127462;23;20493;-84
2021/01/03 09:41:03;;;;;;;10.43;7.30;;;4.50;98.30;;;;;;5127256;23;20423;-84
2021/01/03 09:43:15;;;;;;;12.03;8.17;;;4.50;98.30;;;;;;5127382;23;20523;-84
2021/01/03 09:45:29;;;;;;;9.97;7.77;;;4.70;98.30;;;;;;5127158;23;20523;-83
2021/01/03 09:47:43;;;;;;;10.93;8.40;;;5.00;98.30;;;;;;5128249;23;20962;-84
2021/01/03 09:49:49;;;;;;;10.83;8.47;;;5.20;98.30;;;;;;5127860;23;20450;-83
2021/01/03 09:52:06;;;;;;;11.70;7.77;;;5.20;98.30;;;;;;5128115;23;20479;-84
2021/01/03 09:54:18;;;;;;;13.40;8.20;;;5.10;98.30;;;;;;5120720;23;20442;-84
2021/01/03 09:56:26;;;;;;;14.97;8.47;;;5.20;98.30;;;;;;5127530;23;20434;-84
2021/01/03 09:58:37;;;;;;;14.20;8.50;;;5.30;98.30;;;;;;5127760;23;20427;-84
2021/01/03 10:00:53;;;;;;;12.37;8.20;;;5.50;98.30;;;;;;5128711;23;20412;-84
2021/01/03 10:03:14;;;;;;;12.63;9.37;;;5.80;98.30;;;;;;5127916;23;20440;-83
2021/01/03 10:05:25;;;;;;;13.43;8.60;;;6.20;98.30;;;;;;5127426;23;20484;-83
2021/01/03 10:07:29;;;;;;;13.77;8.80;;;6.50;98.30;;;;;;5128650;23;20495;-83
2021/01/03 10:09:33;;;;;;;10.27;8.20;;;6.80;98.30;;;;;;5128343;23;20769;-84
2021/01/03 10:11:36;;;;;;;11.73;8.10;;;6.90;98.30;;;;;;5127983;23;20788;-84
2021/01/03 10:13:38;;;;;;;11.43;8.27;;;7.10;98.30;;;;;;5130588;23;20462;-84
2021/01/03 10:15:41;;;;;;;9.13;6.90;;;7.30;98.30;;;;;;5137466;23;20503;-84
2021/01/03 10:17:55;;;;;;;9.97;8.20;;;7.40;98.30;;;;;;5129847;23;20477;-84
2021/01/03 10:19:57;;;;;;;12.27;9.43;;;7.40;98.30;;;;;;5128104;23;20473;-85
2021/01/03 10:21:59;;;;;;;13.80;9.40;;;7.60;98.30;;;;;;5127392;23;20505;-84
2021/01/03 10:24:03;;;;;;;31.00;18.53;;;7.80;98.30;;;;;;5127953;23;20449;-85
2021/01/03 10:26:19;;;;;;;44.33;23.20;;;8.10;98.30;;;;;;5119612;23;20464;-84
2021/01/03 10:28:21;;;;;;;9.90;7.20;;;8.40;98.30;;;;;;5127203;23;20540;-84
2021/01/03 10:30:23;;;;;;;8.27;6.40;;;8.60;98.30;;;;;;5127565;23;20449;-84
2021/01/03 10:32:25;;;;;;;9.03;7.10;;;8.60;98.30;;;;;;5119945;23;20453;-84
2021/01/03 10:34:28;;;;;;;10.00;6.77;;;8.50;98.30;;;;;;5127315;23;20484;-84
2021/01/03 10:36:30;;;;;;;7.67;6.80;;;8.60;98.30;;;;;;5119411;23;20453;-84
2021/01/03 10:38:32;;;;;;;7.60;6.40;;;8.50;98.30;;;;;;5126877;23;20949;-84
2021/01/03 10:40:55;;;;;;;8.93;6.97;;;8.30;98.30;;;;;;5120279;23;21004;-84
2021/01/03 10:42:57;;;;;;;7.77;6.20;;;8.20;98.30;;;;;;5127951;23;21045;-84
2021/01/03 10:44:59;;;;;;;9.50;7.20;;;8.10;98.30;;;;;;5129122;23;20453;-84
2021/01/03 10:47:00;;;;;;;9.40;6.63;;;8.20;98.30;;;;;;5128598;23;20449;-84
2021/01/03 10:49:03;;;;;;;10.93;6.17;;;8.30;98.30;;;;;;5126600;23;20449;-84
2021/01/03 10:51:06;;;;;;;8.57;5.60;;;7.90;98.30;;;;;;5126624;23;21113;-84
2021/01/03 10:53:08;;;;;;;7.40;6.10;;;7.50;98.30;;;;;;5118154;23;20453;-83
2021/01/03 10:55:14;;;;;;;8.50;5.77;;;7.40;98.30;;;;;;5127235;23;20454;-80